createdAt,value
2018-11-14T00:04:07.637Z,7.60
2018-11-14T00:09:11.539Z,8.43
2018-11-14T00:14:15.037Z,8.35
2018-11-14T00:19:18.482Z,7.60
2018-11-14T00:24:21.913Z,7.62
2018-11-14T00:29:25.401Z,8.58
2018-11-14T00:34:28.812Z,8.65
2018-11-14T00:39:32.455Z,6.22
2018-11-14T00:44:35.877Z,6.03
2018-11-14T00:49:39.347Z,6.67
2018-11-14T00:54:42.680Z,6.50
2018-11-14T00:59:46.576Z,6.12
2018-11-14T01:04:50.033Z,9.33
2018-11-14T01:09:53.873Z,6.70
2018-11-14T01:14:57.833Z,4.92
2018-11-14T01:20:01.222Z,5.00
2018-11-14T01:25:05.654Z,5.95
2018-11-14T01:30:18.528Z,5.80
2018-11-14T01:35:22.227Z,6.15
2018-11-14T01:40:26.024Z,5.37
2018-11-14T01:45:29.682Z,5.30
2018-11-14T01:50:35.947Z,6.73
2018-11-14T01:55:39.366Z,6.10
2018-11-14T02:00:42.826Z,9.00
2018-11-14T02:05:48.334Z,7.22
2018-11-14T02:10:53.777Z,8.15
2018-11-14T02:15:57.208Z,9.15
2018-11-14T02:21:00.665Z,6.75
2018-11-14T02:26:04.025Z,7.63
2018-11-14T02:31:09.950Z,7.80
2018-11-14T02:36:13.505Z,8.75
2018-11-14T02:41:17.000Z,10.48
2018-11-14T02:46:20.405Z,7.03
2018-11-14T02:51:26.762Z,6.90
2018-11-14T02:56:30.135Z,7.33
2018-11-14T03:01:33.537Z,7.10
2018-11-14T03:06:36.939Z,8.00
2018-11-14T03:11:40.408Z,6.90
2018-11-14T03:16:43.763Z,7.92
2018-11-14T03:21:47.198Z,7.80
2018-11-14T03:26:50.725Z,7.30
2018-11-14T03:31:55.169Z,6.70
2018-11-14T03:36:58.675Z,8.33
2018-11-14T03:42:04.272Z,8.63
2018-11-14T03:47:08.043Z,6.90
2018-11-14T03:52:12.435Z,10.80
2018-11-14T03:57:16.055Z,10.00
2018-11-14T04:02:19.685Z,8.78
2018-11-14T04:07:23.326Z,8.78
2018-11-14T04:12:26.825Z,9.80
2018-11-14T04:17:30.805Z,8.93
2018-11-14T04:22:35.947Z,8.90
2018-11-14T04:27:39.845Z,11.23
2018-11-14T04:32:48.719Z,9.28
2018-11-14T04:37:52.338Z,10.40
2018-11-14T04:43:02.750Z,9.70
2018-11-14T04:48:06.690Z,8.40
2018-11-14T04:53:10.340Z,8.30
2018-11-14T04:58:13.997Z,8.53
2018-11-14T05:03:17.534Z,7.92
2018-11-14T05:08:21.978Z,8.53
2018-11-14T05:13:25.586Z,9.13
2018-11-14T05:18:29.186Z,9.20
2018-11-14T05:23:33.031Z,8.38
2018-11-14T05:28:44.338Z,9.80
2018-11-14T05:33:51.925Z,8.13
2018-11-14T05:38:55.592Z,7.57
2018-11-14T05:43:59.492Z,9.00
2018-11-14T05:49:03.067Z,9.10
2018-11-14T05:54:07.672Z,9.88
2018-11-14T05:59:11.400Z,7.97
2018-11-14T06:04:15.715Z,11.93
2018-11-14T06:09:19.316Z,26.52
2018-11-14T06:14:22.873Z,13.90
2018-11-14T06:19:27.174Z,16.75
2018-11-14T06:24:30.612Z,13.40
2018-11-14T06:29:37.364Z,50.35
2018-11-14T06:34:40.852Z,46.23
2018-11-14T06:39:45.131Z,20.70
2018-11-14T06:44:49.075Z,22.67
2018-11-14T06:49:52.970Z,11.63
2018-11-14T06:54:56.627Z,20.30
2018-11-14T07:00:00.109Z,18.45
2018-11-14T07:05:04.046Z,14.15
2018-11-14T07:10:09.198Z,13.85
2018-11-14T07:15:19.063Z,50.35
2018-11-14T07:20:27.887Z,32.00
2018-11-14T07:25:41.756Z,57.83
2018-11-14T07:30:48.867Z,50.88
2018-11-14T07:36:03.353Z,33.02
2018-11-14T07:41:09.205Z,39.50
2018-11-14T07:46:16.847Z,32.58
2018-11-14T07:51:23.754Z,25.37
2018-11-14T08:02:13.162Z,16.67
2018-11-14T08:07:19.830Z,20.32
2018-11-14T08:12:23.300Z,20.08
2018-11-14T08:17:26.721Z,28.35
2018-11-14T08:22:30.153Z,27.80
2018-11-14T08:27:33.478Z,44.33
2018-11-14T08:32:37.753Z,31.15
2018-11-14T08:37:42.838Z,40.65
2018-11-14T08:42:49.340Z,47.23
2018-11-14T08:47:56.657Z,39.38
2018-11-14T08:52:59.956Z,23.32
2018-11-14T08:58:03.420Z,23.77
2018-11-14T09:03:07.964Z,16.42
2018-11-14T09:08:12.241Z,15.23
2018-11-14T09:13:16.720Z,16.80
2018-11-14T09:18:20.146Z,9.77
2018-11-14T09:23:23.572Z,16.87
2018-11-14T09:28:27.411Z,11.90
2018-11-14T09:33:32.320Z,12.05
2018-11-14T09:38:36.900Z,13.95
2018-11-14T09:43:40.235Z,28.50
2018-11-14T09:48:43.590Z,35.60
2018-11-14T09:53:47.189Z,19.40
2018-11-14T09:58:50.735Z,10.28
2018-11-14T10:03:54.261Z,30.92
2018-11-14T10:08:57.782Z,16.90
2018-11-14T10:14:01.282Z,9.93
2018-11-14T10:19:05.290Z,9.45
2018-11-14T10:24:09.016Z,9.13
2018-11-14T10:29:12.441Z,12.00
2018-11-14T10:34:15.829Z,41.40
2018-11-14T10:39:19.258Z,10.50
2018-11-14T10:44:22.860Z,11.15
2018-11-14T10:49:26.454Z,19.02
2018-11-14T10:54:29.960Z,13.83
2018-11-14T10:59:33.559Z,14.10
2018-11-14T11:04:42.135Z,13.93
2018-11-14T11:09:51.021Z,14.13
2018-11-14T11:16:02.793Z,15.40
2018-11-14T11:21:06.301Z,14.45
2018-11-14T11:26:09.982Z,35.23
2018-11-14T11:31:19.336Z,17.45
2018-11-14T11:36:22.891Z,20.82
2018-11-14T11:41:26.920Z,21.10
2018-11-14T11:46:30.720Z,29.00
2018-11-14T11:51:35.292Z,19.55
2018-11-14T11:56:38.688Z,18.17
2018-11-14T12:01:45.790Z,24.60
2018-11-14T12:06:49.278Z,18.80
2018-11-14T12:11:54.984Z,18.77
2018-11-14T12:17:00.726Z,19.60
2018-11-14T12:22:05.354Z,18.35
2018-11-14T12:27:09.725Z,17.05
2018-11-14T12:32:13.068Z,18.50
2018-11-14T12:37:16.617Z,19.95
2018-11-14T12:42:23.118Z,19.37
2018-11-14T12:47:26.634Z,18.50
2018-11-14T12:52:30.287Z,17.92
2018-11-14T12:57:34.457Z,18.30
2018-11-14T13:02:37.944Z,18.15
2018-11-14T13:07:41.457Z,18.37
2018-11-14T13:12:45.642Z,18.67
2018-11-14T13:17:49.116Z,18.40
2018-11-14T13:22:52.759Z,17.25
2018-11-14T13:27:56.196Z,18.15
2018-11-14T13:33:00.505Z,17.40
2018-11-14T13:38:07.529Z,16.02
2018-11-14T13:43:17.942Z,15.15
2018-11-14T14:10:13.984Z,15.37
2018-11-14T14:15:23.755Z,15.43
2018-11-14T14:20:27.289Z,17.73
2018-11-14T14:25:32.882Z,17.47
2018-11-14T14:30:37.437Z,17.93
2018-11-14T14:35:40.932Z,18.20
2018-11-14T14:40:45.060Z,18.98
2018-11-14T14:51:23.649Z,21.27
2018-11-14T15:01:57.699Z,20.55
2018-11-14T15:07:04.956Z,19.37
2018-11-14T15:12:08.412Z,19.27
2018-11-14T15:17:11.756Z,16.00
2018-11-14T15:22:15.207Z,10.32
2018-11-14T15:27:18.737Z,9.78
2018-11-14T15:32:22.018Z,8.95
2018-11-14T15:37:25.346Z,9.35
2018-11-14T15:42:28.848Z,10.32
2018-11-14T15:47:32.191Z,9.25
2018-11-14T15:52:36.610Z,10.28
2018-11-14T15:57:40.172Z,10.30
2018-11-14T16:02:43.490Z,10.77
2018-11-14T16:07:48.186Z,11.80
2018-11-14T16:12:51.835Z,14.18
2018-11-14T16:17:55.251Z,14.58
2018-11-14T16:23:08.350Z,16.20
2018-11-14T16:28:11.931Z,15.80
2018-11-14T16:33:16.618Z,16.43
2018-11-14T16:38:21.682Z,17.50
2018-11-14T16:43:28.504Z,16.50
2018-11-14T16:48:32.582Z,16.95
2018-11-14T16:53:36.014Z,16.30
2018-11-14T16:58:39.698Z,17.60
2018-11-14T17:03:43.320Z,18.20
2018-11-14T17:08:46.627Z,17.37
2018-11-14T17:13:50.239Z,17.53
2018-11-14T17:18:53.772Z,16.52
2018-11-14T17:23:57.389Z,18.15
2018-11-14T17:29:00.912Z,18.30
2018-11-14T17:34:04.325Z,17.60
2018-11-14T17:39:10.582Z,16.97
2018-11-14T17:44:14.457Z,18.07
2018-11-14T17:49:18.517Z,18.05
2018-11-14T17:54:23.955Z,18.00
2018-11-14T17:59:30.790Z,19.85
2018-11-14T18:04:34.407Z,23.40
2018-11-14T18:09:38.009Z,21.53
2018-11-14T18:14:42.084Z,23.10
2018-11-14T18:19:46.782Z,22.60
2018-11-14T18:24:50.548Z,24.35
2018-11-14T18:29:54.829Z,25.10
2018-11-14T18:35:07.010Z,25.95
2018-11-14T18:45:53.566Z,28.60
2018-11-14T18:57:07.273Z,29.02
2018-11-14T19:02:12.098Z,30.37
2018-11-14T19:07:15.846Z,26.55
2018-11-14T19:12:31.182Z,25.12
2018-11-14T19:17:36.470Z,26.52
2018-11-14T19:28:22.176Z,26.30
2018-11-14T19:33:39.300Z,25.67
2018-11-14T19:38:56.999Z,24.63
2018-11-14T19:44:26.105Z,26.37
2018-11-14T19:49:36.969Z,30.08
2018-11-14T19:54:42.765Z,25.20
2018-11-14T19:59:49.367Z,25.40
2018-11-14T20:04:54.895Z,26.05
2018-11-14T20:09:59.764Z,24.50
2018-11-14T20:15:04.210Z,25.97
2018-11-14T20:20:12.605Z,27.67
2018-11-14T20:25:16.122Z,30.47
2018-11-14T20:30:22.646Z,27.80
2018-11-14T20:35:28.782Z,27.22
2018-11-14T20:45:44.874Z,25.35
2018-11-14T20:50:49.260Z,26.02
2018-11-14T20:55:52.933Z,31.10
2018-11-14T21:00:56.267Z,28.87
2018-11-14T21:06:10.715Z,29.75
2018-11-14T21:11:14.630Z,28.70
2018-11-14T21:16:23.786Z,29.80
2018-11-14T21:21:28.325Z,32.87
2018-11-14T21:26:33.165Z,32.10
2018-11-14T21:31:39.320Z,29.52
2018-11-14T21:36:46.288Z,27.07
2018-11-14T21:41:53.249Z,27.40
2018-11-14T21:47:02.645Z,24.95
2018-11-14T21:52:09.292Z,25.72
2018-11-14T21:57:13.692Z,25.05
2018-11-14T22:02:21.836Z,23.13
2018-11-14T22:07:29.776Z,23.18
2018-11-14T22:12:33.848Z,22.40
2018-11-14T22:17:39.784Z,23.50
2018-11-14T22:22:44.661Z,22.80
2018-11-14T22:27:49.915Z,22.47
2018-11-14T22:32:55.472Z,21.53
2018-11-14T22:37:59.413Z,22.07
2018-11-14T22:43:02.814Z,21.42
2018-11-14T22:48:06.212Z,22.40
2018-11-14T22:53:11.110Z,23.33
2018-11-14T22:58:14.404Z,23.73
2018-11-14T23:03:19.029Z,22.35
2018-11-14T23:08:22.392Z,25.43
2018-11-14T23:13:25.805Z,22.50
2018-11-14T23:18:29.124Z,22.58
2018-11-14T23:23:32.510Z,21.80
2018-11-14T23:28:36.046Z,20.27
2018-11-14T23:33:39.588Z,19.00
2018-11-14T23:38:43.047Z,18.55
2018-11-14T23:43:46.396Z,19.25
2018-11-14T23:48:49.920Z,19.82
2018-11-14T23:53:53.352Z,18.00
2018-11-14T23:58:56.711Z,19.62
